Time;durP1;ratioP1;P1;durP2;ratioP2;P2;SDS_P1;SDS_P2;PMS_P1;PMS_P2;Temp;Humidity;BMP_temperature;BMP_pressure;BME280_temperature;BME280_humidity;BME280_pressure;Samples;Min_cycle;Max_cycle;Signal;HPM_P1;HPM_P2
2020/12/17 00:00:33;;;;;;;6.30;2.70;;;8.30;94.10;;;;;;5009592;28;20074;-67
2020/12/17 00:02:59;;;;;;;4.65;2.50;;;8.30;94.10;;;;;;5011220;28;20139;-67
2020/12/17 00:05:26;;;;;;;6.35;2.80;;;8.30;94.30;;;;;;5007922;28;20045;-67
2020/12/17 00:07:52;;;;;;;3.85;1.83;;;8.20;94.20;;;;;;5010838;28;20336;-67
2020/12/17 00:10:19;;;;;;;4.93;2.50;;;8.20;94.30;;;;;;5010962;28;20386;-67
2020/12/17 00:12:47;;;;;;;7.00;3.15;;;8.30;94.10;;;;;;5005386;28;20093;-67
2020/12/17 00:15:16;;;;;;;4.05;2.47;;;8.20;94.20;;;;;;5009463;28;20422;-67
2020/12/17 00:17:44;;;;;;;4.43;2.50;;;8.10;94.30;;;;;;5006627;28;20507;-67
2020/12/17 00:20:11;;;;;;;5.57;2.70;;;8.30;94.00;;;;;;4991288;28;20433;-67
2020/12/17 00:22:41;;;;;;;4.25;1.83;;;8.30;93.70;;;;;;5006663;28;20050;-67
2020/12/17 00:25:09;;;;;;;4.75;2.28;;;8.40;93.50;;;;;;5004821;28;20513;-67
2020/12/17 00:27:39;;;;;;;6.05;2.63;;;8.50;93.30;;;;;;5010570;28;20133;-68
2020/12/17 00:30:07;;;;;;;7.32;2.50;;;8.40;93.40;;;;;;5005113;28;20068;-67
2020/12/17 00:32:34;;;;;;;5.25;2.80;;;8.40;93.60;;;;;;5009113;28;20125;-67
2020/12/17 00:35:00;;;;;;;5.10;2.70;;;8.30;93.60;;;;;;5009295;28;20046;-67
2020/12/17 00:37:31;;;;;;;5.10;2.83;;;8.40;93.30;;;;;;5007962;28;20056;-67
2020/12/17 00:39:58;;;;;;;5.43;2.72;;;8.30;93.40;;;;;;4999771;28;20089;-67
2020/12/17 00:42:24;;;;;;;4.18;2.22;;;8.30;93.40;;;;;;5016808;28;20092;-67
2020/12/17 00:44:50;;;;;;;4.03;2.38;;;8.50;93.00;;;;;;5014819;28;20428;-67
2020/12/17 00:47:17;;;;;;;6.80;2.10;;;8.60;92.90;;;;;;5002021;28;20295;-67
2020/12/17 00:49:45;;;;;;;4.20;1.90;;;8.60;92.70;;;;;;5009387;28;20045;-67
2020/12/17 00:52:11;;;;;;;5.40;2.25;;;8.60;92.80;;;;;;5000793;28;20516;-67
2020/12/17 00:54:39;;;;;;;5.57;2.28;;;8.70;92.80;;;;;;5004957;28;20046;-67
2020/12/17 00:57:06;;;;;;;5.40;2.45;;;8.70;92.70;;;;;;4997139;28;20151;-67
2020/12/17 00:59:33;;;;;;;7.85;2.53;;;8.70;92.70;;;;;;5010133;28;20042;-67
2020/12/17 01:02:00;;;;;;;5.45;2.28;;;8.80;92.50;;;;;;4999580;28;20084;-67
2020/12/17 01:04:26;;;;;;;6.93;2.50;;;8.70;92.50;;;;;;4999448;28;20073;-67
2020/12/17 01:07:03;;;;;;;6.05;2.25;;;8.80;92.60;;;;;;4999774;28;20132;-67
2020/12/17 01:09:29;;;;;;;5.63;1.98;;;8.80;92.70;;;;;;5001880;28;20092;-67
2020/12/17 01:11:55;;;;;;;5.25;2.63;;;8.80;92.30;;;;;;4997088;28;20042;-67
2020/12/17 01:14:22;;;;;;;3.55;1.85;;;8.80;92.40;;;;;;5006676;28;20046;-67
2020/12/17 01:16:48;;;;;;;5.07;2.45;;;8.90;91.90;;;;;;5001540;28;20126;-67
2020/12/17 01:19:16;;;;;;;6.53;2.17;;;9.00;91.70;;;;;;5000048;28;20049;-67
2020/12/17 01:21:42;;;;;;;5.05;2.13;;;8.90;91.90;;;;;;5017496;28;20522;-67
2020/12/17 01:24:08;;;;;;;4.63;2.15;;;8.90;92.10;;;;;;4990686;28;20089;-67
2020/12/17 01:26:35;;;;;;;5.32;2.33;;;8.70;92.30;;;;;;5005022;28;20140;-67
2020/12/17 01:29:02;;;;;;;6.57;2.13;;;8.80;92.40;;;;;;5008094;28;20085;-67
2020/12/17 01:31:28;;;;;;;3.97;1.90;;;8.80;92.20;;;;;;4999071;28;20437;-67
2020/12/17 01:33:54;;;;;;;5.55;2.00;;;9.00;91.80;;;;;;5010649;28;20077;-68
2020/12/17 01:36:21;;;;;;;5.57;2.40;;;9.10;91.60;;;;;;5010107;28;20137;-67
2020/12/17 01:38:47;;;;;;;5.55;2.13;;;9.00;91.60;;;;;;5015799;28;20111;-67
2020/12/17 01:41:14;;;;;;;5.85;2.13;;;9.00;91.70;;;;;;5012871;28;20054;-74
2020/12/17 01:43:46;;;;;;;5.95;2.47;;;8.90;91.90;;;;;;5008376;28;20475;-74
2020/12/17 01:46:14;;;;;;;3.65;2.28;;;8.80;92.00;;;;;;5007854;28;20132;-74
2020/12/17 01:48:42;;;;;;;3.67;1.60;;;8.80;92.00;;;;;;5005849;28;20094;-74
2020/12/17 01:51:09;;;;;;;4.13;1.70;;;8.80;91.90;;;;;;5008022;28;20124;-74
2020/12/17 01:53:38;;;;;;;4.65;2.30;;;8.80;91.80;;;;;;5020104;28;20120;-74
2020/12/17 01:56:09;;;;;;;6.00;2.20;;;8.80;91.90;;;;;;5008101;28;20527;-74
2020/12/17 01:58:41;;;;;;;3.03;1.95;;;8.90;91.60;;;;;;5018856;28;20135;-74
2020/12/17 02:01:12;;;;;;;5.05;2.47;;;8.80;91.80;;;;;;5008845;28;20054;-74
2020/12/17 02:03:39;;;;;;;4.80;2.30;;;8.70;92.10;;;;;;5018302;28;20080;-74
2020/12/17 02:06:07;;;;;;;4.63;2.10;;;8.50;92.40;;;;;;5021242;28;20050;-74
2020/12/17 02:08:38;;;;;;;6.07;2.30;;;8.50;92.40;;;;;;5011940;28;20538;-74
2020/12/17 02:11:08;;;;;;;3.97;2.10;;;8.60;92.40;;;;;;5007743;28;20121;-74
2020/12/17 02:13:35;;;;;;;5.50;2.20;;;8.80;92.10;;;;;;5021595;28;20058;-74
2020/12/17 02:16:04;;;;;;;5.90;2.15;;;8.80;91.90;;;;;;5012574;28;20125;-74
2020/12/17 02:18:31;;;;;;;5.30;1.70;;;8.80;92.00;;;;;;5001244;28;20066;-74
2020/12/17 02:20:57;;;;;;;5.00;2.00;;;8.90;91.80;;;;;;5010366;28;20041;-74
2020/12/17 02:23:24;;;;;;;4.43;1.80;;;8.90;91.60;;;;;;5013920;28;20053;-74
2020/12/17 02:25:52;;;;;;;4.60;2.33;;;8.90;91.60;;;;;;5011138;28;20133;-74
2020/12/17 02:28:20;;;;;;;5.85;2.30;;;8.80;91.80;;;;;;5009541;28;20038;-74
2020/12/17 02:30:47;;;;;;;5.57;1.70;;;8.80;91.90;;;;;;5008080;28;20050;-74
2020/12/17 02:33:15;;;;;;;5.13;2.20;;;8.80;92.00;;;;;;5006259;28;20420;-74
2020/12/17 02:35:42;;;;;;;4.68;2.13;;;8.60;92.20;;;;;;5008586;28;20096;-74
2020/12/17 02:38:08;;;;;;;4.55;1.95;;;8.50;92.40;;;;;;5007226;28;20136;-74
2020/12/17 02:40:35;;;;;;;4.47;1.63;;;8.50;92.50;;;;;;5006197;28;20081;-74
2020/12/17 02:43:02;;;;;;;7.75;1.85;;;8.70;92.30;;;;;;5011877;28;20105;-74
2020/12/17 02:45:29;;;;;;;5.72;2.35;;;8.60;92.20;;;;;;5008831;28;20141;-74
2020/12/17 02:47:55;;;;;;;4.20;1.90;;;8.60;92.30;;;;;;5011612;28;20129;-74
2020/12/17 02:50:22;;;;;;;8.40;1.98;;;8.60;92.20;;;;;;5012703;28;20042;-74
2020/12/17 02:52:48;;;;;;;4.68;1.85;;;8.70;92.00;;;;;;5011896;28;20148;-74
2020/12/17 02:55:14;;;;;;;2.75;1.48;;;8.70;92.20;;;;;;5011622;28;20129;-74
2020/12/17 02:57:41;;;;;;;4.65;1.83;;;8.70;92.10;;;;;;5014543;28;20087;-74
2020/12/17 03:00:11;;;;;;;9.40;1.65;;;8.70;92.10;;;;;;5012995;28;20113;-74
2020/12/17 03:02:37;;;;;;;4.53;1.85;;;8.80;91.90;;;;;;5019877;28;20057;-74
2020/12/17 03:05:05;;;;;;;4.60;2.10;;;8.80;91.90;;;;;;5017166;28;20551;-74
2020/12/17 03:07:32;;;;;;;3.75;1.48;;;8.70;91.90;;;;;;5009162;28;20046;-74
2020/12/17 03:09:59;;;;;;;4.20;1.77;;;8.70;92.00;;;;;;5016102;28;20366;-74
2020/12/17 03:12:26;;;;;;;4.80;2.03;;;8.60;92.10;;;;;;5015211;28;20188;-74
2020/12/17 03:14:52;;;;;;;3.90;1.95;;;8.60;92.20;;;;;;5014321;28;20204;-74
2020/12/17 03:17:19;;;;;;;6.65;2.13;;;8.60;92.20;;;;;;5014307;28;20426;-74
2020/12/17 03:19:45;;;;;;;3.50;1.77;;;8.70;92.10;;;;;;5011283;28;20428;-74
2020/12/17 03:22:12;;;;;;;4.60;1.77;;;8.60;92.10;;;;;;5011883;28;20116;-74
2020/12/17 03:24:38;;;;;;;4.60;2.17;;;8.50;92.20;;;;;;5005390;28;20083;-74
2020/12/17 03:27:04;;;;;;;3.67;2.15;;;8.50;92.30;;;;;;5010544;28;20046;-74
2020/12/17 03:29:30;;;;;;;6.00;1.98;;;8.50;92.20;;;;;;5009798;28;20050;-74
2020/12/17 03:31:57;;;;;;;5.20;1.70;;;8.60;92.30;;;;;;5014109;28;20044;-74
2020/12/17 03:34:23;;;;;;;5.75;2.05;;;8.60;92.10;;;;;;5019732;28;20050;-74
2020/12/17 03:36:49;;;;;;;3.78;1.40;;;8.60;92.10;;;;;;5007825;28;20050;-73
2020/12/17 03:39:16;;;;;;;7.47;1.83;;;8.70;92.00;;;;;;5011888;28;20041;-74
2020/12/17 03:41:42;;;;;;;5.15;1.58;;;8.80;92.00;;;;;;5011415;28;20137;-74
2020/12/17 03:44:09;;;;;;;5.00;2.50;;;8.60;92.00;;;;;;5014705;28;20181;-74
2020/12/17 03:46:35;;;;;;;5.38;1.60;;;8.60;92.40;;;;;;5010973;28;20542;-74
2020/12/17 03:49:03;;;;;;;3.97;1.80;;;8.70;91.90;;;;;;5018040;28;20128;-75
2020/12/17 03:51:29;;;;;;;9.75;2.20;;;8.60;92.00;;;;;;5011176;28;20072;-74
2020/12/17 03:53:56;;;;;;;4.95;1.52;;;8.70;91.90;;;;;;5011879;28;20388;-74
2020/12/17 03:56:22;;;;;;;4.32;1.73;;;8.60;91.90;;;;;;5012048;28;20129;-74
2020/12/17 03:58:49;;;;;;;4.30;1.48;;;8.60;92.00;;;;;;5009732;28;20133;-73
2020/12/17 04:01:15;;;;;;;3.85;1.45;;;8.60;92.10;;;;;;5013040;28;20060;-74
2020/12/17 04:03:42;;;;;;;4.00;1.30;;;8.60;92.10;;;;;;5011778;28;20053;-74
2020/12/17 04:06:08;;;;;;;3.35;1.63;;;8.60;92.10;;;;;;5010652;28;20129;-74
2020/12/17 04:08:34;;;;;;;4.30;1.50;;;8.60;92.20;;;;;;5010387;28;20049;-74
2020/12/17 04:11:02;;;;;;;3.50;1.25;;;8.60;92.20;;;;;;5017010;28;20131;-75
2020/12/17 04:13:30;;;;;;;4.47;1.65;;;8.70;91.80;;;;;;5015218;28;20052;-74
2020/12/17 04:15:59;;;;;;;7.70;1.98;;;8.70;91.80;;;;;;5010837;28;20046;-74
2020/12/17 04:18:25;;;;;;;5.47;1.63;;;8.70;91.90;;;;;;5010624;28;20205;-74
2020/12/17 04:20:51;;;;;;;3.65;1.70;;;8.60;91.90;;;;;;5009674;28;20420;-74
2020/12/17 04:23:18;;;;;;;4.45;1.95;;;8.60;92.00;;;;;;5010624;28;20049;-74
2020/12/17 04:25:44;;;;;;;4.97;1.75;;;8.50;92.10;;;;;;5014062;28;20144;-74
2020/12/17 04:28:11;;;;;;;7.40;1.92;;;8.60;92.20;;;;;;5009631;28;20132;-74
2020/12/17 04:30:37;;;;;;;4.78;1.70;;;8.40;92.30;;;;;;5010559;28;20095;-74
2020/12/17 04:33:03;;;;;;;3.38;1.50;;;8.50;92.30;;;;;;5013113;28;20048;-74
2020/12/17 04:35:30;;;;;;;4.75;2.15;;;8.50;92.20;;;;;;5015126;28;20134;-74
2020/12/17 04:37:56;;;;;;;4.88;1.92;;;8.50;92.30;;;;;;5010060;28;20526;-74
2020/12/17 04:40:23;;;;;;;6.28;1.88;;;8.40;92.40;;;;;;5010991;28;20134;-74
2020/12/17 04:42:50;;;;;;;4.15;1.80;;;8.40;92.60;;;;;;5020683;28;20073;-74
2020/12/17 04:45:19;;;;;;;7.35;1.95;;;8.30;92.80;;;;;;5010134;28;20054;-74
2020/12/17 04:47:47;;;;;;;4.35;1.85;;;8.30;92.90;;;;;;5013004;28;20084;-74
2020/12/17 04:50:16;;;;;;;4.68;1.80;;;8.30;92.90;;;;;;5009145;28;20100;-74
2020/12/17 04:52:43;;;;;;;4.70;1.80;;;8.30;92.90;;;;;;5010454;28;20121;-74
2020/12/17 04:55:11;;;;;;;3.58;1.80;;;8.30;92.90;;;;;;5009435;28;20135;-74
2020/12/17 04:57:45;;;;;;;5.28;2.10;;;8.20;93.00;;;;;;5009584;28;20125;-74
2020/12/17 05:00:14;;;;;;;6.97;2.00;;;8.20;92.90;;;;;;5014229;28;20045;-74
2020/12/17 05:02:46;;;;;;;5.18;2.33;;;8.20;93.10;;;;;;5000678;28;20037;-73
2020/12/17 05:05:15;;;;;;;3.20;1.65;;;8.10;93.30;;;;;;5012815;28;20053;-75
2020/12/17 05:07:41;;;;;;;5.47;1.92;;;8.10;93.30;;;;;;5008633;28;20114;-74
2020/12/17 05:10:08;;;;;;;4.22;1.83;;;8.10;93.30;;;;;;5009024;28;20073;-74
2020/12/17 05:12:35;;;;;;;4.60;2.20;;;8.10;93.30;;;;;;5013585;28;20091;-74
2020/12/17 05:15:01;;;;;;;6.65;1.98;;;8.00;93.40;;;;;;5011113;28;20082;-74
2020/12/17 05:17:28;;;;;;;10.52;2.75;;;8.00;93.50;;;;;;5009647;28;20124;-74
2020/12/17 05:19:55;;;;;;;6.38;2.00;;;8.00;93.60;;;;;;5012683;28;20136;-74
2020/12/17 05:22:21;;;;;;;5.03;1.92;;;7.80;93.80;;;;;;5009852;28;20085;-74
2020/12/17 05:24:48;;;;;;;7.93;2.42;;;7.80;93.90;;;;;;5009170;28;20042;-74
2020/12/17 05:27:15;;;;;;;5.88;2.47;;;7.90;93.90;;;;;;5009945;28;20046;-74
2020/12/17 05:29:43;;;;;;;5.95;2.35;;;7.80;93.90;;;;;;5010102;28;20042;-74
2020/12/17 05:32:17;;;;;;;6.63;2.75;;;7.80;94.40;;;;;;5005786;28;20050;-73
2020/12/17 05:34:44;;;;;;;4.38;2.20;;;7.90;94.00;;;;;;5009074;28;20050;-74
2020/12/17 05:37:12;;;;;;;4.63;2.50;;;7.80;94.10;;;;;;5009170;28;20164;-74
2020/12/17 05:39:57;;;;;;;8.82;3.17;;;7.80;94.10;;;;;;5010660;28;20041;-74
2020/12/17 05:42:23;;;;;;;5.88;2.75;;;7.80;94.20;;;;;;5010832;28;20050;-73
2020/12/17 05:44:49;;;;;;;7.40;2.80;;;7.70;94.40;;;;;;5013825;28;20049;-74
2020/12/17 05:47:17;;;;;;;5.05;2.60;;;7.70;94.40;;;;;;5010892;28;20053;-74
2020/12/17 05:49:43;;;;;;;8.90;2.78;;;7.70;94.50;;;;;;5017128;28;20056;-73
2020/12/17 05:52:21;;;;;;;9.23;2.95;;;7.60;94.50;;;;;;5011423;28;20080;-74
2020/12/17 05:54:54;;;;;;;5.47;2.30;;;7.60;94.70;;;;;;5010420;28;20141;-74
2020/12/17 05:57:21;;;;;;;7.63;2.60;;;7.60;94.70;;;;;;5011463;28;20375;-75
2020/12/17 05:59:59;;;;;;;5.43;2.58;;;7.60;94.70;;;;;;5017882;28;20149;-74
2020/12/17 06:02:26;;;;;;;6.25;2.60;;;7.60;94.70;;;;;;5022599;28;20126;-74
2020/12/17 06:05:13;;;;;;;4.50;2.10;;;7.60;94.90;;;;;;5011326;28;20133;-74
2020/12/17 06:07:51;;;;;;;6.18;2.65;;;7.50;94.90;;;;;;5013449;28;20107;-74
2020/12/17 06:10:24;;;;;;;6.13;3.08;;;7.50;94.90;;;;;;5008269;28;20137;-74
2020/12/17 06:12:59;;;;;;;6.60;2.78;;;7.50;95.00;;;;;;5010126;28;20129;-74
2020/12/17 06:15:27;;;;;;;5.32;2.35;;;7.50;95.00;;;;;;5006493;28;20050;-74
2020/12/17 06:17:56;;;;;;;5.97;2.50;;;7.60;94.90;;;;;;5007670;28;20156;-73
2020/12/17 06:20:29;;;;;;;7.70;2.67;;;7.60;95.00;;;;;;5008705;28;20056;-74
2020/12/17 06:22:58;;;;;;;7.80;3.03;;;7.60;94.90;;;;;;5013260;28;20112;-74
2020/12/17 06:25:26;;;;;;;5.00;2.80;;;7.60;95.00;;;;;;5013518;28;20536;-74
2020/12/17 06:27:53;;;;;;;6.25;2.72;;;7.60;95.20;;;;;;5023632;28;20127;-74
2020/12/17 06:30:31;;;;;;;5.22;2.28;;;7.60;95.00;;;;;;5018464;28;20581;-74
2020/12/17 06:33:03;;;;;;;7.22;2.78;;;7.60;95.00;;;;;;5012727;28;20050;-74
2020/12/17 06:35:41;;;;;;;5.88;2.80;;;7.70;94.90;;;;;;5013501;28;20045;-74
2020/12/17 06:38:09;;;;;;;5.32;2.05;;;7.70;94.90;;;;;;5012018;28;20128;-74
2020/12/17 06:40:37;;;;;;;6.38;2.47;;;7.70;94.90;;;;;;5013099;28;20046;-74
2020/12/17 06:43:27;;;;;;;6.55;3.08;;;7.80;94.90;;;;;;5021694;28;20057;-74
2020/12/17 06:45:54;;;;;;;6.63;2.60;;;7.80;94.90;;;;;;5011011;28;20042;-74
2020/12/17 06:48:33;;;;;;;6.03;2.63;;;7.80;94.80;;;;;;5020681;28;20326;-74
2020/12/17 06:51:21;;;;;;;6.90;3.05;;;7.80;94.90;;;;;;5013743;28;20088;-74
2020/12/17 06:53:47;;;;;;;5.72;2.47;;;7.80;95.00;;;;;;5011314;28;20419;-74
2020/12/17 06:56:17;;;;;;;8.02;3.13;;;7.80;94.90;;;;;;5014846;28;20120;-74
2020/12/17 06:58:44;;;;;;;5.13;2.40;;;7.90;94.90;;;;;;5011115;28;20108;-74
2020/12/17 07:01:26;;;;;;;5.65;2.42;;;7.90;94.80;;;;;;5012473;28;20140;-74
2020/12/17 07:03:53;;;;;;;6.43;2.83;;;8.00;94.80;;;;;;5016080;28;20045;-74
2020/12/17 07:06:20;;;;;;;8.40;3.30;;;8.10;94.70;;;;;;5019753;28;20089;-74
2020/12/17 07:08:51;;;;;;;6.03;2.40;;;8.10;94.60;;;;;;5013583;28;20519;-74
2020/12/17 07:11:37;;;;;;;5.18;2.30;;;8.20;94.60;;;;;;5010915;28;20121;-74
2020/12/17 07:14:06;;;;;;;4.32;2.63;;;8.20;94.60;;;;;;5012590;28;20083;-74
2020/12/17 07:16:35;;;;;;;8.10;2.80;;;8.20;94.70;;;;;;5010300;28;20480;-74
2020/12/17 07:19:22;;;;;;;8.70;2.80;;;8.20;94.60;;;;;;5014407;28;20467;-74
2020/12/17 07:21:58;;;;;;;8.25;2.78;;;8.30;94.50;;;;;;5009404;28;20136;-74
2020/12/17 07:24:36;;;;;;;4.93;2.33;;;8.40;94.50;;;;;;5008828;28;20045;-74
2020/12/17 07:27:06;;;;;;;6.75;3.33;;;8.30;94.40;;;;;;5006566;28;20353;-73
2020/12/17 07:29:39;;;;;;;10.07;2.40;;;8.40;94.40;;;;;;5015147;28;20077;-74
2020/12/17 07:32:27;;;;;;;6.97;3.13;;;8.40;94.40;;;;;;5009869;28;20164;-74
2020/12/17 07:35:07;;;;;;;6.05;2.60;;;8.40;94.50;;;;;;5010105;28;20124;-74
2020/12/17 07:37:40;;;;;;;5.78;2.53;;;8.40;94.80;;;;;;5008941;28;20376;-74
2020/12/17 07:40:30;;;;;;;10.23;3.20;;;8.50;94.30;;;;;;5007267;28;20131;-74
2020/12/17 07:43:00;;;;;;;6.53;2.20;;;8.60;94.30;;;;;;5013428;28;20045;-75
2020/12/17 07:45:57;;;;;;;9.65;2.72;;;8.70;94.10;;;;;;5001938;28;20097;-74
2020/12/17 07:48:44;;;;;;;9.13;3.60;;;8.70;94.00;;;;;;4997720;28;20100;-74
2020/12/17 07:51:13;;;;;;;5.55;2.28;;;8.70;94.10;;;;;;5008922;28;20062;-74
2020/12/17 07:53:44;;;;;;;7.38;2.90;;;8.80;94.10;;;;;;5011142;28;20046;-74
2020/12/17 07:56:12;;;;;;;8.00;2.90;;;8.80;94.10;;;;;;5007334;28;20145;-74
2020/12/17 07:58:40;;;;;;;8.13;2.75;;;8.80;94.00;;;;;;5009804;28;20471;-74
2020/12/17 08:01:07;;;;;;;6.80;2.72;;;8.80;94.00;;;;;;5011645;28;20436;-74
2020/12/17 08:03:44;;;;;;;7.15;2.92;;;8.80;94.00;;;;;;5011951;28;20054;-74
2020/12/17 08:06:13;;;;;;;8.02;3.30;;;8.80;94.00;;;;;;5011992;28;20417;-74
2020/12/17 08:08:43;;;;;;;9.52;3.20;;;8.90;94.30;;;;;;5004244;28;20052;-74
2020/12/17 08:11:28;;;;;;;7.53;2.78;;;8.80;94.00;;;;;;5006246;28;20196;-74
2020/12/17 08:14:06;;;;;;;8.98;2.83;;;8.80;94.00;;;;;;5007237;28;20099;-74
2020/12/17 08:16:34;;;;;;;11.68;3.25;;;8.90;94.00;;;;;;5006157;28;20576;-74
2020/12/17 08:19:03;;;;;;;10.77;3.83;;;8.80;94.10;;;;;;5006544;28;20221;-74
2020/12/17 08:21:29;;;;;;;11.57;3.38;;;8.90;94.10;;;;;;5003009;28;20468;-75
2020/12/17 08:23:56;;;;;;;10.13;3.80;;;8.80;94.20;;;;;;5005150;28;20057;-74
2020/12/17 08:26:26;;;;;;;7.38;3.25;;;8.90;94.20;;;;;;5001704;28;20054;-74
2020/12/17 08:28:53;;;;;;;7.00;3.47;;;9.00;93.90;;;;;;5003741;28;20120;-74
2020/12/17 08:31:19;;;;;;;11.15;3.28;;;9.00;93.90;;;;;;5007433;28;20153;-74
2020/12/17 08:33:52;;;;;;;9.82;4.25;;;8.90;94.10;;;;;;5011721;28;20157;-74
2020/12/17 08:36:22;;;;;;;8.40;3.97;;;8.80;94.30;;;;;;5012604;28;20483;-74
2020/12/17 08:38:53;;;;;;;8.80;4.20;;;8.90;94.40;;;;;;5010682;28;20084;-74
2020/12/17 08:41:25;;;;;;;12.63;3.72;;;8.80;94.70;;;;;;5005087;28;20108;-74
2020/12/17 08:43:53;;;;;;;8.75;4.57;;;8.70;95.00;;;;;;5009988;28;20058;-74
2020/12/17 08:46:20;;;;;;;9.77;3.85;;;8.60;95.60;;;;;;5007859;28;20054;-74
2020/12/17 08:48:47;;;;;;;13.30;5.07;;;8.50;95.70;;;;;;5012874;28;20128;-75
2020/12/17 08:51:17;;;;;;;11.98;4.75;;;8.50;95.80;;;;;;5009915;28;20133;-74
2020/12/17 08:53:45;;;;;;;10.75;4.65;;;8.40;96.40;;;;;;5003875;28;20085;-74
2020/12/17 08:56:15;;;;;;;10.50;5.07;;;8.40;96.70;;;;;;5011625;28;20074;-75
2020/12/17 08:58:59;;;;;;;8.20;4.53;;;8.30;97.00;;;;;;5021954;28;20103;-75
2020/12/17 09:01:31;;;;;;;10.25;4.65;;;8.30;96.90;;;;;;5003241;28;20132;-74
2020/12/17 09:03:58;;;;;;;12.40;8.18;;;8.30;97.10;;;;;;5003278;28;20515;-75
2020/12/17 09:06:30;;;;;;;11.68;5.90;;;8.30;97.20;;;;;;5015440;28;20126;-75
2020/12/17 09:09:15;;;;;;;11.05;5.00;;;8.20;97.30;;;;;;5015255;28;20046;-74
2020/12/17 09:11:46;;;;;;;11.90;6.07;;;8.20;97.40;;;;;;5008530;28;20447;-75
2020/12/17 09:14:20;;;;;;;13.00;4.70;;;8.20;97.60;;;;;;5014855;28;20614;-74
2020/12/17 09:16:51;;;;;;;7.85;4.07;;;8.20;97.50;;;;;;5006681;28;20120;-75
2020/12/17 09:19:18;;;;;;;11.93;6.35;;;8.20;97.60;;;;;;5003184;28;20081;-75
2020/12/17 09:22:00;;;;;;;10.93;5.85;;;8.20;97.60;;;;;;5007239;28;20125;-74
2020/12/17 09:24:27;;;;;;;8.75;5.35;;;8.30;97.40;;;;;;5000340;28;20050;-74
2020/12/17 09:26:53;;;;;;;9.38;5.05;;;8.30;97.60;;;;;;5007812;28;21004;-74
2020/12/17 09:29:20;;;;;;;10.77;5.85;;;8.30;97.60;;;;;;5009334;28;20422;-74
2020/12/17 09:31:46;;;;;;;9.63;5.63;;;8.30;97.60;;;;;;5008830;28;20046;-75
2020/12/17 09:34:18;;;;;;;12.60;5.60;;;8.30;97.50;;;;;;5007798;28;20075;-75
2020/12/17 09:36:54;;;;;;;14.02;5.68;;;8.30;97.60;;;;;;5008206;28;20418;-74
2020/12/17 09:39:21;;;;;;;9.43;5.53;;;8.40;97.40;;;;;;5007964;28;20115;-75
2020/12/17 09:41:55;;;;;;;13.43;5.68;;;8.50;97.10;;;;;;5006632;28;20046;-75
2020/12/17 09:44:30;;;;;;;11.77;5.88;;;8.50;97.20;;;;;;5006645;28;20085;-75
2020/12/17 09:46:57;;;;;;;10.88;5.35;;;8.50;97.40;;;;;;5005178;28;20188;-75
2020/12/17 09:49:25;;;;;;;9.35;3.97;;;8.60;97.30;;;;;;5008189;28;20050;-75
2020/12/17 09:52:06;;;;;;;9.40;5.03;;;8.60;96.80;;;;;;5003104;28;20085;-75
2020/12/17 09:54:32;;;;;;;9.07;4.25;;;8.70;96.60;;;;;;5003530;28;20608;-75
2020/12/17 09:57:04;;;;;;;9.05;4.70;;;8.80;96.40;;;;;;5004336;28;20045;-75
2020/12/17 09:59:30;;;;;;;13.98;6.15;;;8.80;96.60;;;;;;5006067;28;20148;-75
2020/12/17 10:02:01;;;;;;;9.52;5.35;;;8.90;96.40;;;;;;5007509;28;20072;-75
2020/12/17 10:04:27;;;;;;;11.05;4.68;;;8.80;96.50;;;;;;5008402;28;20506;-75
2020/12/17 10:06:54;;;;;;;14.00;4.82;;;8.90;96.30;;;;;;5004840;28;20046;-74
2020/12/17 10:09:21;;;;;;;7.80;4.00;;;8.90;96.30;;;;;;5008385;28;20097;-75
2020/12/17 10:11:52;;;;;;;9.10;5.20;;;8.80;96.30;;;;;;5005813;28;20416;-75
2020/12/17 10:14:19;;;;;;;7.70;4.47;;;8.90;96.20;;;;;;5008290;28;20479;-75
2020/12/17 10:16:46;;;;;;;8.90;5.28;;;8.90;96.10;;;;;;5008631;28;20057;-74
2020/12/17 10:19:15;;;;;;;7.30;4.18;;;8.90;96.20;;;;;;5008252;28;20085;-75
2020/12/17 10:21:41;;;;;;;9.07;4.25;;;8.90;96.30;;;;;;5007226;28;20088;-74
2020/12/17 10:24:08;;;;;;;6.45;3.70;;;9.00;96.30;;;;;;5006363;28;20116;-74
2020/12/17 10:26:34;;;;;;;8.35;3.78;;;9.00;95.40;;;;;;5004592;28;20085;-74
2020/12/17 10:29:00;;;;;;;8.57;3.38;;;9.00;95.40;;;;;;5006987;28;20137;-74
2020/12/17 10:31:27;;;;;;;8.82;3.78;;;9.00;95.80;;;;;;4997104;28;20159;-74
2020/12/17 10:33:55;;;;;;;10.70;3.72;;;9.00;95.50;;;;;;5005079;28;20041;-74
2020/12/17 10:36:23;;;;;;;7.78;3.30;;;9.00;95.70;;;;;;5001540;28;20046;-74
2020/12/17 10:38:50;;;;;;;6.10;3.20;;;9.00;95.50;;;;;;5004858;28;20074;-74
2020/12/17 10:41:25;;;;;;;8.10;2.97;;;9.00;95.20;;;;;;5002967;28;20082;-74
2020/12/17 10:43:53;;;;;;;5.15;3.00;;;9.00;95.10;;;;;;5008498;28;20127;-74
2020/12/17 10:46:20;;;;;;;6.13;2.80;;;9.00;95.20;;;;;;5007263;28;20124;-74
2020/12/17 10:48:47;;;;;;;8.68;3.10;;;9.00;95.20;;;;;;5006925;28;20041;-75
2020/12/17 10:51:15;;;;;;;6.07;2.63;;;9.00;95.30;;;;;;4997866;28;20074;-74
2020/12/17 10:53:42;;;;;;;4.65;2.85;;;8.90;95.40;;;;;;5000080;28;20128;-75
2020/12/17 10:56:09;;;;;;;8.00;2.42;;;9.10;95.30;;;;;;5006243;28;20438;-74
2020/12/17 10:58:37;;;;;;;7.60;2.58;;;9.10;94.50;;;;;;5004218;28;20100;-74
2020/12/17 11:01:04;;;;;;;5.20;2.78;;;9.10;94.60;;;;;;5005064;28;20088;-75
2020/12/17 11:03:30;;;;;;;6.07;3.13;;;9.00;94.70;;;;;;5007639;28;20090;-75
2020/12/17 11:05:58;;;;;;;10.85;3.60;;;9.00;94.90;;;;;;5005645;28;20478;-74
2020/12/17 11:08:28;;;;;;;6.43;3.05;;;8.90;95.00;;;;;;5008927;28;20054;-74
2020/12/17 11:10:55;;;;;;;6.13;2.85;;;8.90;95.10;;;;;;5011610;28;20141;-74
2020/12/17 11:13:22;;;;;;;6.15;3.50;;;8.90;95.00;;;;;;5009846;28;20065;-75
2020/12/17 11:15:49;;;;;;;8.20;3.55;;;8.90;95.30;;;;;;5008728;28;20077;-74
2020/12/17 11:18:17;;;;;;;11.40;5.43;;;8.90;95.60;;;;;;5010856;28;20077;-75
2020/12/17 11:20:44;;;;;;;5.93;2.95;;;9.00;95.00;;;;;;5006019;28;20155;-74
2020/12/17 11:23:11;;;;;;;10.32;6.90;;;9.10;94.80;;;;;;5008022;28;20046;-74
2020/12/17 11:25:39;;;;;;;23.55;12.65;;;9.20;94.70;;;;;;5004011;28;20045;-74
2020/12/17 11:28:06;;;;;;;13.43;8.02;;;9.30;94.50;;;;;;5002265;28;20151;-74
2020/12/17 11:30:34;;;;;;;18.05;10.23;;;9.30;94.30;;;;;;5010639;28;20049;-75
2020/12/17 11:33:01;;;;;;;6.75;3.33;;;9.40;94.20;;;;;;5007878;28;20050;-75
2020/12/17 11:35:28;;;;;;;7.20;3.80;;;9.50;94.10;;;;;;5010665;28;20137;-74
2020/12/17 11:37:54;;;;;;;10.18;4.68;;;9.50;94.30;;;;;;5000314;28;20044;-74
2020/12/17 11:40:21;;;;;;;9.85;3.38;;;9.50;94.00;;;;;;5011055;28;20050;-74
2020/12/17 11:42:48;;;;;;;7.43;2.90;;;9.50;94.30;;;;;;5009711;28;20145;-73
2020/12/17 11:45:15;;;;;;;7.70;3.70;;;9.40;94.00;;;;;;5010848;28;20092;-74
2020/12/17 11:47:41;;;;;;;10.77;4.38;;;9.50;94.10;;;;;;5009105;28;20156;-74
2020/12/17 11:50:08;;;;;;;9.45;5.13;;;9.50;94.00;;;;;;5007705;28;20070;-74
2020/12/17 11:52:35;;;;;;;12.50;5.63;;;9.40;94.40;;;;;;5006153;28;20117;-74
2020/12/17 11:55:03;;;;;;;6.63;4.28;;;9.50;94.10;;;;;;5006973;28;20105;-75
2020/12/17 11:57:30;;;;;;;13.05;5.68;;;9.50;94.00;;;;;;5009447;28;20071;-75
2020/12/17 11:59:56;;;;;;;6.72;3.38;;;9.60;93.90;;;;;;5008507;28;20140;-74
2020/12/17 12:02:22;;;;;;;9.38;4.70;;;9.60;93.90;;;;;;5009700;28;20077;-74
2020/12/17 12:04:49;;;;;;;9.18;3.05;;;9.60;94.20;;;;;;5009884;28;20096;-75
2020/12/17 12:07:15;;;;;;;5.75;3.35;;;9.60;93.70;;;;;;5009002;28;20432;-74
2020/12/17 12:09:41;;;;;;;5.32;2.72;;;9.60;93.70;;;;;;5009646;28;20097;-74
2020/12/17 12:12:08;;;;;;;5.55;2.53;;;9.60;93.80;;;;;;5007121;28;20053;-74
2020/12/17 12:14:37;;;;;;;6.90;2.47;;;9.60;93.60;;;;;;5008605;28;20046;-74
2020/12/17 12:17:03;;;;;;;13.75;5.63;;;9.50;93.90;;;;;;5009091;28;20297;-74
2020/12/17 12:19:30;;;;;;;6.00;2.92;;;9.50;93.90;;;;;;5008115;28;20434;-74
2020/12/17 12:21:56;;;;;;;5.75;3.17;;;9.40;94.20;;;;;;5005216;28;20125;-74
2020/12/17 12:24:22;;;;;;;9.50;4.50;;;9.40;94.20;;;;;;5008958;28;20152;-74
2020/12/17 12:26:48;;;;;;;6.95;3.20;;;9.30;94.10;;;;;;5009213;28;20463;-74
2020/12/17 12:29:15;;;;;;;8.32;4.25;;;9.40;93.90;;;;;;5006893;28;20068;-73
2020/12/17 12:31:41;;;;;;;6.55;2.13;;;9.40;94.10;;;;;;5008802;28;20517;-73
2020/12/17 12:34:07;;;;;;;4.50;1.45;;;9.40;94.00;;;;;;5008844;28;20521;-73
2020/12/17 12:36:34;;;;;;;3.65;1.88;;;9.30;93.90;;;;;;5010109;28;20132;-74
2020/12/17 12:39:00;;;;;;;7.55;2.10;;;9.40;93.80;;;;;;5007655;28;20132;-74
2020/12/17 12:41:26;;;;;;;7.75;2.45;;;9.30;93.80;;;;;;5007936;28;20113;-75
2020/12/17 12:44:05;;;;;;;4.70;2.25;;;9.40;93.60;;;;;;5009332;28;20444;-74
2020/12/17 12:46:32;;;;;;;6.15;2.75;;;9.30;93.70;;;;;;5008399;28;20147;-73
2020/12/17 12:48:58;;;;;;;4.32;1.90;;;9.40;93.80;;;;;;5007496;28;20119;-75
2020/12/17 12:51:24;;;;;;;4.88;1.80;;;9.50;93.70;;;;;;5008379;28;20554;-75
2020/12/17 12:53:55;;;;;;;5.55;1.80;;;9.50;93.50;;;;;;5009025;28;20483;-75
2020/12/17 12:56:29;;;;;;;8.05;1.63;;;9.50;93.20;;;;;;5009336;28;20560;-74
2020/12/17 12:58:55;;;;;;;7.47;2.10;;;9.50;93.50;;;;;;5008518;28;20184;-73
2020/12/17 13:01:22;;;;;;;4.60;1.58;;;9.50;93.50;;;;;;5005958;28;20125;-73
2020/12/17 13:03:48;;;;;;;3.10;1.63;;;9.50;93.20;;;;;;5009252;28;20058;-74